sensor_id;sensor_type;location;lat;lon;timestamp;P1;durP1;ratioP1;P2;durP2;ratioP2
56122;SDS011;42426;46.104;19.656;2024-01-15T00:01:03;72.30;;;39.65;;
56122;SDS011;42426;46.104;19.656;2024-01-15T00:03:29;71.88;;;40.15;;
56122;SDS011;42426;46.104;19.656;2024-01-15T00:05:55;69.82;;;39.85;;
56122;SDS011;42426;46.104;19.656;2024-01-15T00:08:21;77.20;;;41.97;;
56122;SDS011;42426;46.104;19.656;2024-01-15T00:10:47;61.22;;;37.70;;
56122;SDS011;42426;46.104;19.656;2024-01-15T00:13:13;74.47;;;40.38;;
56122;SDS011;42426;46.104;19.656;2024-01-15T00:15:40;74.30;;;39.08;;
56122;SDS011;42426;46.104;19.656;2024-01-15T00:18:06;69.28;;;38.75;;
56122;SDS011;42426;46.104;19.656;2024-01-15T00:20:32;69.40;;;40.60;;
56122;SDS011;42426;46.104;19.656;2024-01-15T00:22:58;80.68;;;41.72;;
56122;SDS011;42426;46.104;19.656;2024-01-15T00:25:24;75.72;;;43.22;;
56122;SDS011;42426;46.104;19.656;2024-01-15T00:27:50;69.45;;;42.83;;
56122;SDS011;42426;46.104;19.656;2024-01-15T00:30:17;73.13;;;41.97;;
56122;SDS011;42426;46.104;19.656;2024-01-15T00:32:43;85.13;;;43.55;;
56122;SDS011;42426;46.104;19.656;2024-01-15T00:35:09;84.82;;;44.70;;
56122;SDS011;42426;46.104;19.656;2024-01-15T00:37:35;81.30;;;46.35;;
56122;SDS011;42426;46.104;19.656;2024-01-15T00:40:02;80.88;;;44.63;;
56122;SDS011;42426;46.104;19.656;2024-01-15T00:42:28;82.95;;;45.67;;
56122;SDS011;42426;46.104;19.656;2024-01-15T00:44:55;87.13;;;47.47;;
56122;SDS011;42426;46.104;19.656;2024-01-15T00:47:21;86.00;;;47.03;;
56122;SDS011;42426;46.104;19.656;2024-01-15T00:49:47;88.30;;;49.42;;
56122;SDS011;42426;46.104;19.656;2024-01-15T00:52:13;82.55;;;47.38;;
56122;SDS011;42426;46.104;19.656;2024-01-15T00:54:39;76.68;;;43.75;;
56122;SDS011;42426;46.104;19.656;2024-01-15T00:57:05;80.97;;;44.72;;
56122;SDS011;42426;46.104;19.656;2024-01-15T00:59:31;89.70;;;49.20;;
56122;SDS011;42426;46.104;19.656;2024-01-15T01:01:57;80.47;;;44.90;;
56122;SDS011;42426;46.104;19.656;2024-01-15T01:04:23;74.45;;;44.55;;
56122;SDS011;42426;46.104;19.656;2024-01-15T01:06:51;84.10;;;46.10;;
56122;SDS011;42426;46.104;19.656;2024-01-15T01:09:17;85.80;;;46.97;;
56122;SDS011;42426;46.104;19.656;2024-01-15T01:11:43;87.88;;;48.05;;
56122;SDS011;42426;46.104;19.656;2024-01-15T01:14:09;92.82;;;51.03;;
56122;SDS011;42426;46.104;19.656;2024-01-15T01:16:35;90.65;;;49.35;;
56122;SDS011;42426;46.104;19.656;2024-01-15T01:19:04;92.30;;;50.58;;
56122;SDS011;42426;46.104;19.656;2024-01-15T01:21:31;89.85;;;49.13;;
56122;SDS011;42426;46.104;19.656;2024-01-15T01:23:57;87.43;;;48.88;;
56122;SDS011;42426;46.104;19.656;2024-01-15T01:26:24;84.35;;;47.05;;
56122;SDS011;42426;46.104;19.656;2024-01-15T01:28:50;86.13;;;48.17;;
56122;SDS011;42426;46.104;19.656;2024-01-15T01:31:17;82.70;;;47.97;;
56122;SDS011;42426;46.104;19.656;2024-01-15T01:33:43;82.85;;;46.88;;
56122;SDS011;42426;46.104;19.656;2024-01-15T01:36:10;82.95;;;47.35;;
56122;SDS011;42426;46.104;19.656;2024-01-15T01:38:37;84.57;;;46.17;;
56122;SDS011;42426;46.104;19.656;2024-01-15T01:41:03;84.70;;;46.10;;
56122;SDS011;42426;46.104;19.656;2024-01-15T01:43:29;87.97;;;47.38;;
56122;SDS011;42426;46.104;19.656;2024-01-15T01:45:55;86.35;;;48.97;;
56122;SDS011;42426;46.104;19.656;2024-01-15T01:48:23;84.18;;;48.15;;
56122;SDS011;42426;46.104;19.656;2024-01-15T01:50:54;88.85;;;48.50;;
56122;SDS011;42426;46.104;19.656;2024-01-15T01:53:22;79.90;;;44.63;;
56122;SDS011;42426;46.104;19.656;2024-01-15T01:55:51;86.75;;;45.70;;
56122;SDS011;42426;46.104;19.656;2024-01-15T01:58:17;80.35;;;45.05;;
56122;SDS011;42426;46.104;19.656;2024-01-15T02:00:45;85.30;;;45.50;;
56122;SDS011;42426;46.104;19.656;2024-01-15T02:03:12;78.75;;;44.10;;
56122;SDS011;42426;46.104;19.656;2024-01-15T02:05:39;73.97;;;43.00;;
56122;SDS011;42426;46.104;19.656;2024-01-15T02:08:05;74.07;;;40.78;;
56122;SDS011;42426;46.104;19.656;2024-01-15T02:10:32;72.20;;;40.00;;
56122;SDS011;42426;46.104;19.656;2024-01-15T02:12:58;67.82;;;41.25;;
56122;SDS011;42426;46.104;19.656;2024-01-15T02:15:24;65.15;;;36.67;;
56122;SDS011;42426;46.104;19.656;2024-01-15T02:18:00;64.05;;;36.38;;
56122;SDS011;42426;46.104;19.656;2024-01-15T02:20:26;65.20;;;36.22;;
56122;SDS011;42426;46.104;19.656;2024-01-15T02:22:53;63.95;;;36.15;;
56122;SDS011;42426;46.104;19.656;2024-01-15T02:25:20;60.15;;;34.08;;
56122;SDS011;42426;46.104;19.656;2024-01-15T02:27:46;57.67;;;34.40;;
56122;SDS011;42426;46.104;19.656;2024-01-15T02:30:13;66.65;;;35.13;;
56122;SDS011;42426;46.104;19.656;2024-01-15T02:32:39;59.92;;;34.17;;
56122;SDS011;42426;46.104;19.656;2024-01-15T02:35:05;60.05;;;34.38;;
56122;SDS011;42426;46.104;19.656;2024-01-15T02:37:31;58.20;;;32.28;;
56122;SDS011;42426;46.104;19.656;2024-01-15T02:39:57;54.20;;;33.33;;
56122;SDS011;42426;46.104;19.656;2024-01-15T02:42:25;50.85;;;29.90;;
56122;SDS011;42426;46.104;19.656;2024-01-15T02:44:51;55.28;;;31.48;;
56122;SDS011;42426;46.104;19.656;2024-01-15T02:47:18;49.70;;;28.95;;
56122;SDS011;42426;46.104;19.656;2024-01-15T02:49:44;58.90;;;30.65;;
56122;SDS011;42426;46.104;19.656;2024-01-15T02:52:10;49.13;;;29.70;;
56122;SDS011;42426;46.104;19.656;2024-01-15T02:54:36;48.65;;;27.40;;
56122;SDS011;42426;46.104;19.656;2024-01-15T02:57:02;53.67;;;29.10;;
56122;SDS011;42426;46.104;19.656;2024-01-15T02:59:29;56.65;;;32.20;;
56122;SDS011;42426;46.104;19.656;2024-01-15T03:01:55;50.75;;;28.95;;
56122;SDS011;42426;46.104;19.656;2024-01-15T03:04:21;50.97;;;28.42;;
56122;SDS011;42426;46.104;19.656;2024-01-15T03:06:49;51.85;;;28.92;;
56122;SDS011;42426;46.104;19.656;2024-01-15T03:09:15;50.03;;;27.50;;
56122;SDS011;42426;46.104;19.656;2024-01-15T03:11:42;40.78;;;25.42;;
56122;SDS011;42426;46.104;19.656;2024-01-15T03:14:09;48.30;;;25.98;;
56122;SDS011;42426;46.104;19.656;2024-01-15T03:16:35;46.45;;;26.70;;
56122;SDS011;42426;46.104;19.656;2024-01-15T03:19:01;43.85;;;24.90;;
56122;SDS011;42426;46.104;19.656;2024-01-15T03:21:27;41.15;;;24.17;;
56122;SDS011;42426;46.104;19.656;2024-01-15T03:23:53;43.35;;;24.55;;
56122;SDS011;42426;46.104;19.656;2024-01-15T03:26:19;43.38;;;25.35;;
56122;SDS011;42426;46.104;19.656;2024-01-15T03:28:45;44.60;;;26.35;;
56122;SDS011;42426;46.104;19.656;2024-01-15T03:31:11;46.72;;;25.77;;
56122;SDS011;42426;46.104;19.656;2024-01-15T03:33:37;41.17;;;23.65;;
56122;SDS011;42426;46.104;19.656;2024-01-15T03:36:04;44.70;;;24.80;;
56122;SDS011;42426;46.104;19.656;2024-01-15T03:38:31;42.72;;;24.48;;
56122;SDS011;42426;46.104;19.656;2024-01-15T03:40:57;40.00;;;24.13;;
56122;SDS011;42426;46.104;19.656;2024-01-15T03:43:23;42.40;;;24.30;;
56122;SDS011;42426;46.104;19.656;2024-01-15T03:45:49;41.13;;;24.58;;
56122;SDS011;42426;46.104;19.656;2024-01-15T03:48:15;50.75;;;27.15;;
56122;SDS011;42426;46.104;19.656;2024-01-15T03:50:41;44.97;;;26.15;;
56122;SDS011;42426;46.104;19.656;2024-01-15T03:53:07;39.28;;;23.08;;
56122;SDS011;42426;46.104;19.656;2024-01-15T03:55:33;39.70;;;23.17;;
56122;SDS011;42426;46.104;19.656;2024-01-15T03:57:59;39.97;;;23.15;;
56122;SDS011;42426;46.104;19.656;2024-01-15T04:00:26;39.72;;;21.63;;
56122;SDS011;42426;46.104;19.656;2024-01-15T04:02:52;35.45;;;20.52;;
56122;SDS011;42426;46.104;19.656;2024-01-15T04:05:19;37.50;;;21.42;;
56122;SDS011;42426;46.104;19.656;2024-01-15T04:07:45;36.42;;;21.50;;
56122;SDS011;42426;46.104;19.656;2024-01-15T04:10:11;40.83;;;22.58;;
56122;SDS011;42426;46.104;19.656;2024-01-15T04:12:37;34.13;;;21.02;;
56122;SDS011;42426;46.104;19.656;2024-01-15T04:15:03;38.50;;;20.23;;
56122;SDS011;42426;46.104;19.656;2024-01-15T04:17:29;38.03;;;19.83;;
56122;SDS011;42426;46.104;19.656;2024-01-15T04:19:56;35.67;;;19.15;;
56122;SDS011;42426;46.104;19.656;2024-01-15T04:22:24;30.63;;;18.63;;
56122;SDS011;42426;46.104;19.656;2024-01-15T04:24:50;31.95;;;18.60;;
56122;SDS011;42426;46.104;19.656;2024-01-15T04:27:17;31.65;;;18.65;;
56122;SDS011;42426;46.104;19.656;2024-01-15T04:29:43;33.00;;;20.58;;
56122;SDS011;42426;46.104;19.656;2024-01-15T04:32:09;30.13;;;18.02;;
56122;SDS011;42426;46.104;19.656;2024-01-15T04:34:36;28.23;;;18.65;;
56122;SDS011;42426;46.104;19.656;2024-01-15T04:37:02;29.98;;;17.48;;
56122;SDS011;42426;46.104;19.656;2024-01-15T04:39:28;25.75;;;16.95;;
56122;SDS011;42426;46.104;19.656;2024-01-15T04:41:56;30.23;;;19.33;;
56122;SDS011;42426;46.104;19.656;2024-01-15T04:44:22;27.77;;;16.48;;
56122;SDS011;42426;46.104;19.656;2024-01-15T04:46:49;29.15;;;19.13;;
56122;SDS011;42426;46.104;19.656;2024-01-15T04:49:15;26.83;;;16.83;;
56122;SDS011;42426;46.104;19.656;2024-01-15T04:51:41;35.33;;;18.08;;
56122;SDS011;42426;46.104;19.656;2024-01-15T04:54:07;29.17;;;17.42;;
56122;SDS011;42426;46.104;19.656;2024-01-15T04:56:33;28.25;;;18.25;;
56122;SDS011;42426;46.104;19.656;2024-01-15T04:58:59;34.88;;;18.20;;
56122;SDS011;42426;46.104;19.656;2024-01-15T05:01:25;29.52;;;16.98;;
56122;SDS011;42426;46.104;19.656;2024-01-15T05:03:56;30.67;;;17.90;;
56122;SDS011;42426;46.104;19.656;2024-01-15T05:06:22;32.58;;;19.33;;
56122;SDS011;42426;46.104;19.656;2024-01-15T05:08:48;42.97;;;21.55;;
56122;SDS011;42426;46.104;19.656;2024-01-15T05:11:14;34.65;;;20.40;;
56122;SDS011;42426;46.104;19.656;2024-01-15T05:13:41;37.60;;;19.60;;
56122;SDS011;42426;46.104;19.656;2024-01-15T05:16:07;41.33;;;21.60;;
56122;SDS011;42426;46.104;19.656;2024-01-15T05:18:33;40.63;;;20.88;;
56122;SDS011;42426;46.104;19.656;2024-01-15T05:20:59;33.95;;;21.30;;
56122;SDS011;42426;46.104;19.656;2024-01-15T05:23:25;47.97;;;23.23;;
56122;SDS011;42426;46.104;19.656;2024-01-15T05:25:51;41.42;;;22.63;;
56122;SDS011;42426;46.104;19.656;2024-01-15T05:28:18;43.45;;;21.88;;
56122;SDS011;42426;46.104;19.656;2024-01-15T05:30:44;55.38;;;26.40;;
56122;SDS011;42426;46.104;19.656;2024-01-15T05:33:10;56.33;;;27.63;;
56122;SDS011;42426;46.104;19.656;2024-01-15T05:35:36;65.47;;;29.00;;
56122;SDS011;42426;46.104;19.656;2024-01-15T05:38:02;68.85;;;32.75;;
56122;SDS011;42426;46.104;19.656;2024-01-15T05:40:29;67.40;;;32.55;;
56122;SDS011;42426;46.104;19.656;2024-01-15T05:42:55;63.63;;;28.63;;
56122;SDS011;42426;46.104;19.656;2024-01-15T05:45:21;65.82;;;30.13;;
56122;SDS011;42426;46.104;19.656;2024-01-15T05:47:48;49.55;;;23.38;;
56122;SDS011;42426;46.104;19.656;2024-01-15T05:50:14;50.20;;;23.35;;
56122;SDS011;42426;46.104;19.656;2024-01-15T05:52:40;32.78;;;20.67;;
56122;SDS011;42426;46.104;19.656;2024-01-15T05:55:08;34.67;;;20.50;;
56122;SDS011;42426;46.104;19.656;2024-01-15T05:57:35;34.20;;;19.13;;
56122;SDS011;42426;46.104;19.656;2024-01-15T06:00:01;31.67;;;20.55;;
56122;SDS011;42426;46.104;19.656;2024-01-15T06:02:27;30.98;;;18.02;;
56122;SDS011;42426;46.104;19.656;2024-01-15T06:04:54;35.85;;;20.50;;
56122;SDS011;42426;46.104;19.656;2024-01-15T06:07:20;32.03;;;19.20;;
56122;SDS011;42426;46.104;19.656;2024-01-15T06:09:46;32.00;;;19.67;;
56122;SDS011;42426;46.104;19.656;2024-01-15T06:12:12;31.13;;;18.55;;
56122;SDS011;42426;46.104;19.656;2024-01-15T06:14:38;31.05;;;18.40;;
56122;SDS011;42426;46.104;19.656;2024-01-15T06:17:04;33.75;;;19.88;;
56122;SDS011;42426;46.104;19.656;2024-01-15T06:19:30;32.85;;;19.35;;
56122;SDS011;42426;46.104;19.656;2024-01-15T06:21:56;45.80;;;25.67;;
56122;SDS011;42426;46.104;19.656;2024-01-15T06:24:22;45.33;;;23.83;;
56122;SDS011;42426;46.104;19.656;2024-01-15T06:26:49;49.22;;;24.80;;
56122;SDS011;42426;46.104;19.656;2024-01-15T06:29:15;40.40;;;22.20;;
56122;SDS011;42426;46.104;19.656;2024-01-15T06:31:41;40.33;;;22.33;;
56122;SDS011;42426;46.104;19.656;2024-01-15T06:34:07;50.35;;;25.50;;
56122;SDS011;42426;46.104;19.656;2024-01-15T06:36:33;47.75;;;23.42;;
56122;SDS011;42426;46.104;19.656;2024-01-15T06:39:00;43.03;;;19.65;;
56122;SDS011;42426;46.104;19.656;2024-01-15T06:41:26;37.38;;;19.88;;
56122;SDS011;42426;46.104;19.656;2024-01-15T06:43:52;33.95;;;18.10;;
56122;SDS011;42426;46.104;19.656;2024-01-15T06:46:22;44.15;;;20.08;;
56122;SDS011;42426;46.104;19.656;2024-01-15T06:48:49;39.90;;;20.63;;
56122;SDS011;42426;46.104;19.656;2024-01-15T06:51:15;33.92;;;20.35;;
56122;SDS011;42426;46.104;19.656;2024-01-15T06:53:42;37.20;;;19.33;;
56122;SDS011;42426;46.104;19.656;2024-01-15T06:56:08;32.22;;;18.73;;
56122;SDS011;42426;46.104;19.656;2024-01-15T06:58:35;36.60;;;21.05;;
56122;SDS011;42426;46.104;19.656;2024-01-15T07:01:01;43.28;;;22.38;;
56122;SDS011;42426;46.104;19.656;2024-01-15T07:03:27;41.08;;;22.85;;
56122;SDS011;42426;46.104;19.656;2024-01-15T07:05:53;36.80;;;22.13;;
56122;SDS011;42426;46.104;19.656;2024-01-15T07:08:19;37.00;;;20.83;;
56122;SDS011;42426;46.104;19.656;2024-01-15T07:10:46;33.33;;;20.58;;
56122;SDS011;42426;46.104;19.656;2024-01-15T07:13:12;31.20;;;17.35;;
56122;SDS011;42426;46.104;19.656;2024-01-15T07:15:38;27.67;;;17.65;;
56122;SDS011;42426;46.104;19.656;2024-01-15T07:18:05;31.27;;;20.35;;
56122;SDS011;42426;46.104;19.656;2024-01-15T07:20:31;30.30;;;18.77;;
56122;SDS011;42426;46.104;19.656;2024-01-15T07:22:59;31.02;;;19.38;;
56122;SDS011;42426;46.104;19.656;2024-01-15T07:25:25;34.72;;;19.77;;
56122;SDS011;42426;46.104;19.656;2024-01-15T07:27:52;26.20;;;18.77;;
56122;SDS011;42426;46.104;19.656;2024-01-15T07:30:19;35.22;;;19.88;;
56122;SDS011;42426;46.104;19.656;2024-01-15T07:32:47;41.70;;;22.92;;
56122;SDS011;42426;46.104;19.656;2024-01-15T07:35:14;40.50;;;24.77;;
56122;SDS011;42426;46.104;19.656;2024-01-15T07:37:41;53.10;;;28.73;;
56122;SDS011;42426;46.104;19.656;2024-01-15T07:40:08;43.83;;;24.17;;
56122;SDS011;42426;46.104;19.656;2024-01-15T07:42:36;38.50;;;22.02;;
56122;SDS011;42426;46.104;19.656;2024-01-15T07:45:03;39.13;;;23.35;;
56122;SDS011;42426;46.104;19.656;2024-01-15T07:47:29;39.85;;;22.75;;
56122;SDS011;42426;46.104;19.656;2024-01-15T07:49:56;31.83;;;19.90;;
56122;SDS011;42426;46.104;19.656;2024-01-15T07:52:22;34.10;;;21.98;;
56122;SDS011;42426;46.104;19.656;2024-01-15T07:54:49;36.55;;;23.65;;
56122;SDS011;42426;46.104;19.656;2024-01-15T07:57:15;40.95;;;23.52;;
56122;SDS011;42426;46.104;19.656;2024-01-15T07:59:41;39.83;;;22.02;;
56122;SDS011;42426;46.104;19.656;2024-01-15T08:02:08;47.78;;;26.30;;
56122;SDS011;42426;46.104;19.656;2024-01-15T08:04:36;49.03;;;27.58;;
56122;SDS011;42426;46.104;19.656;2024-01-15T08:07:02;39.33;;;23.23;;
56122;SDS011;42426;46.104;19.656;2024-01-15T08:09:29;43.25;;;25.00;;
56122;SDS011;42426;46.104;19.656;2024-01-15T08:11:55;41.97;;;23.83;;
56122;SDS011;42426;46.104;19.656;2024-01-15T08:14:21;47.00;;;26.67;;
56122;SDS011;42426;46.104;19.656;2024-01-15T08:16:48;48.33;;;26.85;;
56122;SDS011;42426;46.104;19.656;2024-01-15T08:19:15;47.67;;;26.00;;
56122;SDS011;42426;46.104;19.656;2024-01-15T08:21:43;46.55;;;23.33;;
56122;SDS011;42426;46.104;19.656;2024-01-15T08:24:09;37.55;;;23.45;;
56122;SDS011;42426;46.104;19.656;2024-01-15T08:26:35;44.33;;;23.17;;
56122;SDS011;42426;46.104;19.656;2024-01-15T08:29:01;35.67;;;24.02;;
56122;SDS011;42426;46.104;19.656;2024-01-15T08:31:29;48.78;;;27.20;;
56122;SDS011;42426;46.104;19.656;2024-01-15T08:33:55;45.53;;;27.80;;
56122;SDS011;42426;46.104;19.656;2024-01-15T08:36:22;44.55;;;27.20;;
56122;SDS011;42426;46.104;19.656;2024-01-15T08:38:52;49.67;;;25.83;;
56122;SDS011;42426;46.104;19.656;2024-01-15T08:41:18;40.35;;;23.95;;
56122;SDS011;42426;46.104;19.656;2024-01-15T08:43:44;39.40;;;22.58;;
56122;SDS011;42426;46.104;19.656;2024-01-15T08:46:10;38.83;;;23.05;;
56122;SDS011;42426;46.104;19.656;2024-01-15T08:48:38;34.97;;;20.65;;
56122;SDS011;42426;46.104;19.656;2024-01-15T08:51:04;36.15;;;21.13;;
56122;SDS011;42426;46.104;19.656;2024-01-15T08:53:31;40.25;;;21.83;;
56122;SDS011;42426;46.104;19.656;2024-01-15T08:55:58;47.58;;;30.73;;
56122;SDS011;42426;46.104;19.656;2024-01-15T08:58:24;69.55;;;41.05;;
56122;SDS011;42426;46.104;19.656;2024-01-15T09:00:51;59.00;;;33.15;;
56122;SDS011;42426;46.104;19.656;2024-01-15T09:03:17;64.05;;;34.80;;
56122;SDS011;42426;46.104;19.656;2024-01-15T09:05:43;63.78;;;39.25;;
56122;SDS011;42426;46.104;19.656;2024-01-15T09:08:09;75.45;;;43.28;;
56122;SDS011;42426;46.104;19.656;2024-01-15T09:10:36;73.53;;;41.75;;
56122;SDS011;42426;46.104;19.656;2024-01-15T09:13:02;73.38;;;42.05;;
56122;SDS011;42426;46.104;19.656;2024-01-15T09:15:30;53.08;;;29.95;;
56122;SDS011;42426;46.104;19.656;2024-01-15T09:17:56;46.92;;;28.60;;
56122;SDS011;42426;46.104;19.656;2024-01-15T09:20:24;48.42;;;31.08;;
56122;SDS011;42426;46.104;19.656;2024-01-15T09:22:52;54.55;;;30.00;;
56122;SDS011;42426;46.104;19.656;2024-01-15T09:25:19;46.25;;;28.50;;
56122;SDS011;42426;46.104;19.656;2024-01-15T09:27:45;48.80;;;28.42;;
56122;SDS011;42426;46.104;19.656;2024-01-15T09:30:11;84.00;;;49.25;;
56122;SDS011;42426;46.104;19.656;2024-01-15T09:32:38;55.08;;;36.60;;
56122;SDS011;42426;46.104;19.656;2024-01-15T09:35:04;55.00;;;35.05;;
56122;SDS011;42426;46.104;19.656;2024-01-15T09:37:31;52.00;;;30.98;;
56122;SDS011;42426;46.104;19.656;2024-01-15T09:39:57;46.58;;;28.58;;
56122;SDS011;42426;46.104;19.656;2024-01-15T09:42:24;47.67;;;26.65;;
56122;SDS011;42426;46.104;19.656;2024-01-15T09:44:51;48.42;;;27.80;;
56122;SDS011;42426;46.104;19.656;2024-01-15T09:47:18;50.85;;;29.98;;
56122;SDS011;42426;46.104;19.656;2024-01-15T09:49:46;43.63;;;25.92;;
56122;SDS011;42426;46.104;19.656;2024-01-15T09:52:13;44.17;;;27.73;;
56122;SDS011;42426;46.104;19.656;2024-01-15T09:54:42;46.05;;;28.23;;
56122;SDS011;42426;46.104;19.656;2024-01-15T09:57:10;38.63;;;24.60;;
56122;SDS011;42426;46.104;19.656;2024-01-15T09:59:36;47.70;;;26.88;;
56122;SDS011;42426;46.104;19.656;2024-01-15T10:02:04;43.47;;;25.00;;
56122;SDS011;42426;46.104;19.656;2024-01-15T10:04:32;50.45;;;27.45;;
56122;SDS011;42426;46.104;19.656;2024-01-15T10:06:59;45.88;;;27.05;;
56122;SDS011;42426;46.104;19.656;2024-01-15T10:09:26;49.72;;;29.30;;
56122;SDS011;42426;46.104;19.656;2024-01-15T10:11:53;76.25;;;39.17;;
56122;SDS011;42426;46.104;19.656;2024-01-15T10:14:20;59.75;;;33.30;;
56122;SDS011;42426;46.104;19.656;2024-01-15T10:16:46;50.85;;;29.63;;
56122;SDS011;42426;46.104;19.656;2024-01-15T10:19:12;47.42;;;28.02;;
56122;SDS011;42426;46.104;19.656;2024-01-15T10:21:38;44.58;;;27.50;;
56122;SDS011;42426;46.104;19.656;2024-01-15T10:24:05;39.80;;;24.92;;
56122;SDS011;42426;46.104;19.656;2024-01-15T10:26:31;42.33;;;24.83;;
56122;SDS011;42426;46.104;19.656;2024-01-15T10:29:01;43.13;;;24.45;;
56122;SDS011;42426;46.104;19.656;2024-01-15T10:31:28;39.40;;;22.80;;
56122;SDS011;42426;46.104;19.656;2024-01-15T10:34:02;37.92;;;23.40;;
56122;SDS011;42426;46.104;19.656;2024-01-15T10:36:35;41.53;;;23.52;;
56122;SDS011;42426;46.104;19.656;2024-01-15T10:39:02;42.38;;;24.02;;
56122;SDS011;42426;46.104;19.656;2024-01-15T10:41:28;38.95;;;22.75;;
56122;SDS011;42426;46.104;19.656;2024-01-15T10:43:55;38.17;;;22.48;;
56122;SDS011;42426;46.104;19.656;2024-01-15T10:46:21;34.92;;;21.85;;
56122;SDS011;42426;46.104;19.656;2024-01-15T10:48:49;41.05;;;23.70;;
56122;SDS011;42426;46.104;19.656;2024-01-15T10:51:15;39.45;;;23.42;;
56122;SDS011;42426;46.104;19.656;2024-01-15T10:53:41;33.85;;;20.27;;
56122;SDS011;42426;46.104;19.656;2024-01-15T10:56:08;31.58;;;21.33;;
56122;SDS011;42426;46.104;19.656;2024-01-15T10:58:42;38.33;;;23.23;;
56122;SDS011;42426;46.104;19.656;2024-01-15T11:01:08;37.53;;;22.57;;
56122;SDS011;42426;46.104;19.656;2024-01-15T11:03:35;35.47;;;22.05;;
56122;SDS011;42426;46.104;19.656;2024-01-15T11:06:01;35.75;;;21.00;;
56122;SDS011;42426;46.104;19.656;2024-01-15T11:08:28;35.22;;;21.90;;
56122;SDS011;42426;46.104;19.656;2024-01-15T11:10:56;33.60;;;20.85;;
56122;SDS011;42426;46.104;19.656;2024-01-15T11:13:22;33.25;;;21.05;;
56122;SDS011;42426;46.104;19.656;2024-01-15T11:16:14;39.15;;;23.10;;
56122;SDS011;42426;46.104;19.656;2024-01-15T11:18:48;36.03;;;21.50;;
56122;SDS011;42426;46.104;19.656;2024-01-15T11:21:27;33.40;;;20.95;;
56122;SDS011;42426;46.104;19.656;2024-01-15T11:23:55;35.58;;;20.75;;
56122;SDS011;42426;46.104;19.656;2024-01-15T11:28:54;39.42;;;21.30;;
56122;SDS011;42426;46.104;19.656;2024-01-15T11:34:06;33.55;;;20.83;;
56122;SDS011;42426;46.104;19.656;2024-01-15T11:41:56;36.85;;;21.83;;
56122;SDS011;42426;46.104;19.656;2024-01-15T11:44:22;42.10;;;23.15;;
56122;SDS011;42426;46.104;19.656;2024-01-15T11:46:57;39.00;;;22.65;;
56122;SDS011;42426;46.104;19.656;2024-01-15T11:50:09;36.70;;;22.20;;
56122;SDS011;42426;46.104;19.656;2024-01-15T11:52:11;37.90;;;21.33;;
56122;SDS011;42426;46.104;19.656;2024-01-15T11:54:38;50.03;;;27.25;;
56122;SDS011;42426;46.104;19.656;2024-01-15T11:57:06;44.25;;;24.05;;
56122;SDS011;42426;46.104;19.656;2024-01-15T11:59:34;44.70;;;24.08;;
56122;SDS011;42426;46.104;19.656;2024-01-15T12:02:01;47.35;;;27.33;;
56122;SDS011;42426;46.104;19.656;2024-01-15T12:04:28;49.22;;;27.00;;
56122;SDS011;42426;46.104;19.656;2024-01-15T12:06:54;49.58;;;27.70;;
56122;SDS011;42426;46.104;19.656;2024-01-15T12:09:20;45.65;;;29.55;;
56122;SDS011;42426;46.104;19.656;2024-01-15T12:11:56;47.15;;;27.60;;
56122;SDS011;42426;46.104;19.656;2024-01-15T12:14:24;46.15;;;27.52;;
56122;SDS011;42426;46.104;19.656;2024-01-15T12:16:52;46.05;;;25.67;;
56122;SDS011;42426;46.104;19.656;2024-01-15T12:19:18;43.75;;;27.27;;
56122;SDS011;42426;46.104;19.656;2024-01-15T12:21:45;48.67;;;24.67;;
56122;SDS011;42426;46.104;19.656;2024-01-15T12:24:11;47.17;;;25.73;;
56122;SDS011;42426;46.104;19.656;2024-01-15T12:26:37;68.75;;;37.97;;
56122;SDS011;42426;46.104;19.656;2024-01-15T12:29:05;60.53;;;33.40;;
56122;SDS011;42426;46.104;19.656;2024-01-15T12:31:32;62.38;;;34.92;;
56122;SDS011;42426;46.104;19.656;2024-01-15T12:34:01;65.20;;;33.08;;
56122;SDS011;42426;46.104;19.656;2024-01-15T12:36:27;58.83;;;32.88;;
56122;SDS011;42426;46.104;19.656;2024-01-15T12:39:00;56.08;;;32.03;;
56122;SDS011;42426;46.104;19.656;2024-01-15T12:41:26;52.63;;;31.92;;
56122;SDS011;42426;46.104;19.656;2024-01-15T12:43:52;54.70;;;32.13;;
56122;SDS011;42426;46.104;19.656;2024-01-15T12:46:18;54.20;;;31.52;;
56122;SDS011;42426;46.104;19.656;2024-01-15T12:48:44;58.35;;;35.15;;
56122;SDS011;42426;46.104;19.656;2024-01-15T12:51:11;65.45;;;40.95;;
56122;SDS011;42426;46.104;19.656;2024-01-15T12:53:39;67.25;;;40.20;;
56122;SDS011;42426;46.104;19.656;2024-01-15T12:56:05;73.72;;;41.45;;
56122;SDS011;42426;46.104;19.656;2024-01-15T12:58:31;72.93;;;39.45;;
56122;SDS011;42426;46.104;19.656;2024-01-15T13:00:57;60.17;;;39.05;;
56122;SDS011;42426;46.104;19.656;2024-01-15T13:03:23;73.53;;;42.95;;
56122;SDS011;42426;46.104;19.656;2024-01-15T13:05:49;65.82;;;39.00;;
56122;SDS011;42426;46.104;19.656;2024-01-15T13:08:17;74.18;;;40.85;;
56122;SDS011;42426;46.104;19.656;2024-01-15T13:10:44;64.47;;;39.08;;
56122;SDS011;42426;46.104;19.656;2024-01-15T13:13:11;67.80;;;39.70;;
56122;SDS011;42426;46.104;19.656;2024-01-15T13:15:37;61.88;;;36.90;;
56122;SDS011;42426;46.104;19.656;2024-01-15T13:18:03;57.15;;;33.30;;
56122;SDS011;42426;46.104;19.656;2024-01-15T13:20:29;50.38;;;30.45;;
56122;SDS011;42426;46.104;19.656;2024-01-15T13:22:56;55.53;;;31.48;;
56122;SDS011;42426;46.104;19.656;2024-01-15T13:25:22;50.05;;;29.85;;
56122;SDS011;42426;46.104;19.656;2024-01-15T13:27:49;84.82;;;47.10;;
56122;SDS011;42426;46.104;19.656;2024-01-15T13:30:15;78.05;;;44.33;;
56122;SDS011;42426;46.104;19.656;2024-01-15T13:32:46;83.80;;;47.55;;
56122;SDS011;42426;46.104;19.656;2024-01-15T13:35:12;88.72;;;49.28;;
56122;SDS011;42426;46.104;19.656;2024-01-15T13:37:42;88.88;;;51.47;;
56122;SDS011;42426;46.104;19.656;2024-01-15T13:40:08;82.82;;;49.05;;
56122;SDS011;42426;46.104;19.656;2024-01-15T13:42:35;90.30;;;49.78;;
56122;SDS011;42426;46.104;19.656;2024-01-15T13:45:04;83.07;;;47.47;;
56122;SDS011;42426;46.104;19.656;2024-01-15T13:47:31;84.78;;;45.78;;
56122;SDS011;42426;46.104;19.656;2024-01-15T13:49:57;81.97;;;46.33;;
56122;SDS011;42426;46.104;19.656;2024-01-15T13:52:24;76.88;;;45.05;;
56122;SDS011;42426;46.104;19.656;2024-01-15T13:54:50;82.45;;;45.30;;
56122;SDS011;42426;46.104;19.656;2024-01-15T13:57:17;76.13;;;43.58;;
56122;SDS011;42426;46.104;19.656;2024-01-15T13:59:45;73.13;;;42.15;;
56122;SDS011;42426;46.104;19.656;2024-01-15T14:02:11;75.97;;;41.55;;
56122;SDS011;42426;46.104;19.656;2024-01-15T14:04:40;74.65;;;40.45;;
56122;SDS011;42426;46.104;19.656;2024-01-15T14:07:09;76.68;;;39.60;;
56122;SDS011;42426;46.104;19.656;2024-01-15T14:09:35;73.75;;;40.40;;
56122;SDS011;42426;46.104;19.656;2024-01-15T14:12:02;72.15;;;39.55;;
56122;SDS011;42426;46.104;19.656;2024-01-15T14:14:29;75.95;;;42.45;;
56122;SDS011;42426;46.104;19.656;2024-01-15T14:16:55;65.05;;;37.28;;